sensor_id;sensor_type;location;lat;lon;timestamp;pressure;altitude;pressure_sealevel;temperature;humidity
6423;BME280;3244;42.708;23.288;2022-12-18T00:00:39;95802.25;;;7.84;88.49
6423;BME280;3244;42.708;23.288;2022-12-18T00:03:06;95801.56;;;7.68;89.18
6423;BME280;3244;42.708;23.288;2022-12-18T00:05:34;95809.22;;;7.67;89.02
6423;BME280;3244;42.708;23.288;2022-12-18T00:08:01;95811.03;;;7.53;89.44
6423;BME280;3244;42.708;23.288;2022-12-18T00:10:28;95809.34;;;7.50;89.78
6423;BME280;3244;42.708;23.288;2022-12-18T00:12:56;95808.53;;;7.48;89.79
6423;BME280;3244;42.708;23.288;2022-12-18T00:15:22;95807.81;;;7.38;89.71
6423;BME280;3244;42.708;23.288;2022-12-18T00:17:49;95812.09;;;7.30;90.78
6423;BME280;3244;42.708;23.288;2022-12-18T00:20:16;95819.63;;;7.36;89.94
6423;BME280;3244;42.708;23.288;2022-12-18T00:22:48;95828.03;;;7.38;89.05
6423;BME280;3244;42.708;23.288;2022-12-18T00:25:15;95822.91;;;7.44;88.94
6423;BME280;3244;42.708;23.288;2022-12-18T00:27:41;95820.44;;;7.38;89.05
6423;BME280;3244;42.708;23.288;2022-12-18T00:30:09;95831.41;;;7.37;89.21
6423;BME280;3244;42.708;23.288;2022-12-18T00:32:36;95833.91;;;7.42;88.82
6423;BME280;3244;42.708;23.288;2022-12-18T00:35:04;95832.25;;;7.38;88.52
6423;BME280;3244;42.708;23.288;2022-12-18T00:37:31;95836.56;;;7.22;89.18
6423;BME280;3244;42.708;23.288;2022-12-18T00:40:01;95839.91;;;7.26;89.31
6423;BME280;3244;42.708;23.288;2022-12-18T00:42:28;95836.50;;;7.31;89.48
6423;BME280;3244;42.708;23.288;2022-12-18T00:45:11;95836.53;;;7.30;88.12
6423;BME280;3244;42.708;23.288;2022-12-18T00:47:38;95835.72;;;7.26;88.40
6423;BME280;3244;42.708;23.288;2022-12-18T00:50:06;95844.97;;;7.29;88.66
6423;BME280;3244;42.708;23.288;2022-12-18T00:52:33;95846.66;;;7.25;88.28
6423;BME280;3244;42.708;23.288;2022-12-18T00:55:01;95850.88;;;7.26;88.45
6423;BME280;3244;42.708;23.288;2022-12-18T00:57:28;95855.91;;;7.29;87.84
6423;BME280;3244;42.708;23.288;2022-12-18T00:59:54;95867.75;;;7.24;87.54
6423;BME280;3244;42.708;23.288;2022-12-18T01:02:21;95864.34;;;7.27;87.20
6423;BME280;3244;42.708;23.288;2022-12-18T01:04:48;95849.34;;;7.07;87.36
6423;BME280;3244;42.708;23.288;2022-12-18T01:07:14;95866.16;;;7.14;87.40
6423;BME280;3244;42.708;23.288;2022-12-18T01:09:41;95872.94;;;7.04;88.15
6423;BME280;3244;42.708;23.288;2022-12-18T01:12:09;95864.59;;;6.93;88.46
6423;BME280;3244;42.708;23.288;2022-12-18T01:14:36;95872.22;;;6.89;88.04
6423;BME280;3244;42.708;23.288;2022-12-18T01:17:03;95862.16;;;6.82;88.17
6423;BME280;3244;42.708;23.288;2022-12-18T01:19:30;95876.47;;;6.83;88.64
6423;BME280;3244;42.708;23.288;2022-12-18T01:21:57;95875.63;;;6.81;88.14
6423;BME280;3244;42.708;23.288;2022-12-18T01:24:23;95888.28;;;6.80;89.13
6423;BME280;3244;42.708;23.288;2022-12-18T01:26:50;95887.41;;;6.82;87.78
6423;BME280;3244;42.708;23.288;2022-12-18T01:29:18;95873.09;;;6.81;88.43
6423;BME280;3244;42.708;23.288;2022-12-18T01:31:45;95876.50;;;6.73;87.62
6423;BME280;3244;42.708;23.288;2022-12-18T01:34:12;95882.41;;;6.73;87.95
6423;BME280;3244;42.708;23.288;2022-12-18T01:36:39;95884.06;;;6.77;88.50
6423;BME280;3244;42.708;23.288;2022-12-18T01:39:09;95902.59;;;6.76;88.39
6423;BME280;3244;42.708;23.288;2022-12-18T01:41:36;95899.25;;;6.71;87.88
6423;BME280;3244;42.708;23.288;2022-12-18T01:47:23;95907.75;;;6.58;88.09
6423;BME280;3244;42.708;23.288;2022-12-18T01:49:51;95904.41;;;6.47;88.45
6423;BME280;3244;42.708;23.288;2022-12-18T01:52:19;95901.06;;;6.45;88.85
6423;BME280;3244;42.708;23.288;2022-12-18T01:54:47;95907.00;;;6.36;89.24
6423;BME280;3244;42.708;23.288;2022-12-18T01:57:15;95903.63;;;6.42;89.63
6423;BME280;3244;42.708;23.288;2022-12-18T01:59:44;95903.59;;;6.43;89.17
6423;BME280;3244;42.708;23.288;2022-12-18T02:02:12;95904.47;;;6.38;88.37
6423;BME280;3244;42.708;23.288;2022-12-18T02:04:40;95908.69;;;6.37;89.32
6423;BME280;3244;42.708;23.288;2022-12-18T02:07:10;95896.91;;;6.32;88.55
6423;BME280;3244;42.708;23.288;2022-12-18T02:09:47;95909.56;;;6.29;88.72
6423;BME280;3244;42.708;23.288;2022-12-18T02:12:18;95912.06;;;6.35;89.25
6423;BME280;3244;42.708;23.288;2022-12-18T02:14:49;95909.53;;;6.39;87.82
6423;BME280;3244;42.708;23.288;2022-12-18T02:17:22;95916.25;;;6.39;87.99
6423;BME280;3244;42.708;23.288;2022-12-18T02:20:01;95916.28;;;6.33;88.14
6423;BME280;3244;42.708;23.288;2022-12-18T02:22:40;95917.97;;;6.29;88.92
6423;BME280;3244;42.708;23.288;2022-12-18T02:25:25;95917.94;;;6.40;88.65
6423;BME280;3244;42.708;23.288;2022-12-18T02:27:59;95932.25;;;6.38;88.44
6423;BME280;3244;42.708;23.288;2022-12-18T02:30:30;95925.53;;;6.38;87.65
6423;BME280;3244;42.708;23.288;2022-12-18T02:32:59;95929.72;;;6.39;88.00
6423;BME280;3244;42.708;23.288;2022-12-18T02:35:29;95925.53;;;6.32;88.85
6423;BME280;3244;42.708;23.288;2022-12-18T02:37:57;95924.69;;;6.38;88.33
6423;BME280;3244;42.708;23.288;2022-12-18T02:40:26;95937.31;;;6.38;87.52
6423;BME280;3244;42.708;23.288;2022-12-18T02:42:53;95936.47;;;6.36;88.15
6423;BME280;3244;42.708;23.288;2022-12-18T02:45:21;95936.47;;;6.28;87.74
6423;BME280;3244;42.708;23.288;2022-12-18T02:47:49;95941.53;;;6.24;87.71
6423;BME280;3244;42.708;23.288;2022-12-18T02:50:20;95941.53;;;6.24;88.27
6423;BME280;3244;42.708;23.288;2022-12-18T02:52:55;95944.88;;;6.30;88.93
6423;BME280;3244;42.708;23.288;2022-12-18T02:55:33;95934.78;;;6.35;87.85
6423;BME280;3244;42.708;23.288;2022-12-18T02:58:13;95949.09;;;6.36;88.39
6423;BME280;3244;42.708;23.288;2022-12-18T03:00:48;95942.34;;;6.33;87.75
6423;BME280;3244;42.708;23.288;2022-12-18T03:03:21;95939.00;;;6.33;87.43
6423;BME280;3244;42.708;23.288;2022-12-18T03:05:53;95942.38;;;6.29;88.15
6423;BME280;3244;42.708;23.288;2022-12-18T03:08:23;95938.16;;;6.25;87.26
6423;BME280;3244;42.708;23.288;2022-12-18T03:10:55;95945.75;;;6.22;88.52
6423;BME280;3244;42.708;23.288;2022-12-18T03:13:27;95943.22;;;6.25;87.57
6423;BME280;3244;42.708;23.288;2022-12-18T03:15:59;95950.78;;;6.26;87.21
6423;BME280;3244;42.708;23.288;2022-12-18T03:18:30;95952.50;;;6.12;87.17
6423;BME280;3244;42.708;23.288;2022-12-18T03:21:00;95944.13;;;6.02;88.40
6423;BME280;3244;42.708;23.288;2022-12-18T03:23:33;95955.88;;;6.09;87.76
6423;BME280;3244;42.708;23.288;2022-12-18T03:26:09;95958.41;;;6.06;87.22
6423;BME280;3244;42.708;23.288;2022-12-18T03:28:39;95967.66;;;6.06;87.79
6423;BME280;3244;42.708;23.288;2022-12-18T03:31:11;95972.72;;;6.06;87.30
6423;BME280;3244;42.708;23.288;2022-12-18T03:33:41;95977.75;;;6.15;87.64
6423;BME280;3244;42.708;23.288;2022-12-18T03:36:10;95978.59;;;6.09;86.49
6423;BME280;3244;42.708;23.288;2022-12-18T03:38:38;95982.78;;;6.17;86.49
6423;BME280;3244;42.708;23.288;2022-12-18T03:41:09;95982.78;;;6.13;85.80
6423;BME280;3244;42.708;23.288;2022-12-18T03:43:44;95971.88;;;6.10;84.85
6423;BME280;3244;42.708;23.288;2022-12-18T03:46:24;95995.41;;;6.10;84.71
6423;BME280;3244;42.708;23.288;2022-12-18T03:48:58;96002.16;;;6.11;84.93
6423;BME280;3244;42.708;23.288;2022-12-18T03:51:30;96007.19;;;6.08;85.63
6423;BME280;3244;42.708;23.288;2022-12-18T03:54:02;96008.03;;;6.13;84.57
6423;BME280;3244;42.708;23.288;2022-12-18T03:56:33;96013.91;;;5.97;84.02
6423;BME280;3244;42.708;23.288;2022-12-18T03:59:03;96003.84;;;5.91;84.98
6423;BME280;3244;42.708;23.288;2022-12-18T04:01:34;96005.53;;;5.92;84.79
6423;BME280;3244;42.708;23.288;2022-12-18T04:04:02;96000.50;;;5.92;85.08
6423;BME280;3244;42.708;23.288;2022-12-18T04:06:31;96010.59;;;5.89;85.51
6423;BME280;3244;42.708;23.288;2022-12-18T04:08:58;96003.81;;;5.79;85.13
6423;BME280;3244;42.708;23.288;2022-12-18T04:11:25;96005.50;;;5.80;86.05
6423;BME280;3244;42.708;23.288;2022-12-18T04:13:55;96021.44;;;5.71;84.85
6423;BME280;3244;42.708;23.288;2022-12-18T04:16:22;96023.16;;;5.65;84.80
6423;BME280;3244;42.708;23.288;2022-12-18T04:18:51;96027.34;;;5.75;85.24
6423;BME280;3244;42.708;23.288;2022-12-18T04:21:17;96025.66;;;5.77;85.26
6423;BME280;3244;42.708;23.288;2022-12-18T04:23:44;96041.66;;;5.85;83.84
6423;BME280;3244;42.708;23.288;2022-12-18T04:26:11;96045.06;;;5.89;83.24
6423;BME280;3244;42.708;23.288;2022-12-18T04:28:38;96044.19;;;5.88;84.47
6423;BME280;3244;42.708;23.288;2022-12-18T04:31:05;96049.28;;;5.91;83.64
6423;BME280;3244;42.708;23.288;2022-12-18T04:33:31;96057.69;;;5.93;82.63
6423;BME280;3244;42.708;23.288;2022-12-18T04:36:00;96061.00;;;5.86;82.21
6423;BME280;3244;42.708;23.288;2022-12-18T04:38:26;96059.31;;;5.82;82.88
6423;BME280;3244;42.708;23.288;2022-12-18T04:40:53;96065.19;;;5.86;82.55
6423;BME280;3244;42.708;23.288;2022-12-18T04:43:20;96069.38;;;5.77;82.17
6423;BME280;3244;42.708;23.288;2022-12-18T04:45:46;96076.94;;;5.76;81.80
6423;BME280;3244;42.708;23.288;2022-12-18T04:48:13;96055.91;;;5.59;81.20
6423;BME280;3244;42.708;23.288;2022-12-18T04:50:40;96081.16;;;5.74;81.42
6423;BME280;3244;42.708;23.288;2022-12-18T04:53:08;96083.66;;;5.72;81.56
6423;BME280;3244;42.708;23.288;2022-12-18T04:55:34;96095.44;;;5.67;81.46
6423;BME280;3244;42.708;23.288;2022-12-18T04:58:01;96097.97;;;5.63;81.47
6423;BME280;3244;42.708;23.288;2022-12-18T05:00:28;96093.75;;;5.59;81.31
6423;BME280;3244;42.708;23.288;2022-12-18T05:02:55;96097.94;;;5.57;81.00
6423;BME280;3244;42.708;23.288;2022-12-18T05:05:21;96103.81;;;5.56;81.25
6423;BME280;3244;42.708;23.288;2022-12-18T05:07:48;96103.81;;;5.56;81.61
6423;BME280;3244;42.708;23.288;2022-12-18T05:10:16;96094.53;;;5.48;80.97
6423;BME280;3244;42.708;23.288;2022-12-18T05:12:43;96110.53;;;5.57;81.76
6423;BME280;3244;42.708;23.288;2022-12-18T05:15:39;96118.97;;;5.59;81.92
6423;BME280;3244;42.708;23.288;2022-12-18T05:18:07;96115.59;;;5.55;81.38
6423;BME280;3244;42.708;23.288;2022-12-18T05:20:34;96115.59;;;5.58;81.32
6423;BME280;3244;42.708;23.288;2022-12-18T05:23:00;96129.84;;;5.52;81.95
6423;BME280;3244;42.708;23.288;2022-12-18T05:25:27;96138.28;;;5.54;82.13
6423;BME280;3244;42.708;23.288;2022-12-18T05:27:54;96146.66;;;5.50;82.19
6423;BME280;3244;42.708;23.288;2022-12-18T05:30:21;96136.56;;;5.50;82.25
6423;BME280;3244;42.708;23.288;2022-12-18T05:32:49;96143.31;;;5.55;81.33
6423;BME280;3244;42.708;23.288;2022-12-18T05:35:16;96156.75;;;5.53;81.32
6423;BME280;3244;42.708;23.288;2022-12-18T05:37:42;96156.78;;;5.56;81.01
6423;BME280;3244;42.708;23.288;2022-12-18T05:40:10;96156.78;;;5.56;80.83
6423;BME280;3244;42.708;23.288;2022-12-18T05:42:37;96160.16;;;5.70;79.08
6423;BME280;3244;42.708;23.288;2022-12-18T05:45:05;96176.13;;;5.63;78.92
6423;BME280;3244;42.708;23.288;2022-12-18T05:47:32;96175.31;;;5.64;79.62
6423;BME280;3244;42.708;23.288;2022-12-18T05:50:00;96165.22;;;5.67;79.61
6423;BME280;3244;42.708;23.288;2022-12-18T05:52:27;96176.16;;;5.67;79.10
6423;BME280;3244;42.708;23.288;2022-12-18T05:54:53;96175.31;;;5.65;79.00
6423;BME280;3244;42.708;23.288;2022-12-18T05:57:20;96166.03;;;5.60;78.45
6423;BME280;3244;42.708;23.288;2022-12-18T05:59:47;96173.56;;;5.51;78.63
6423;BME280;3244;42.708;23.288;2022-12-18T06:02:13;96180.28;;;5.48;79.79
6423;BME280;3244;42.708;23.288;2022-12-18T06:04:40;96193.75;;;5.57;78.86
6423;BME280;3244;42.708;23.288;2022-12-18T06:07:08;96197.97;;;5.58;79.88
6423;BME280;3244;42.708;23.288;2022-12-18T06:09:35;96198.84;;;5.63;79.30
6423;BME280;3244;42.708;23.288;2022-12-18T06:12:02;96195.47;;;5.61;80.57
6423;BME280;3244;42.708;23.288;2022-12-18T06:14:28;96191.28;;;5.69;79.19
6423;BME280;3244;42.708;23.288;2022-12-18T06:16:55;96196.34;;;5.69;78.96
6423;BME280;3244;42.708;23.288;2022-12-18T06:19:22;96195.47;;;5.64;79.69
6423;BME280;3244;42.708;23.288;2022-12-18T06:21:49;96190.44;;;5.64;78.94
6423;BME280;3244;42.708;23.288;2022-12-18T06:24:17;96203.00;;;5.58;79.55
6423;BME280;3244;42.708;23.288;2022-12-18T06:26:44;96200.47;;;5.55;79.85
6423;BME280;3244;42.708;23.288;2022-12-18T06:29:11;96208.91;;;5.60;79.89
6423;BME280;3244;42.708;23.288;2022-12-18T06:31:38;96201.38;;;5.64;79.57
6423;BME280;3244;42.708;23.288;2022-12-18T06:34:04;96204.72;;;5.66;78.68
6423;BME280;3244;42.708;23.288;2022-12-18T06:36:31;96209.78;;;5.72;78.88
6423;BME280;3244;42.708;23.288;2022-12-18T06:38:58;96203.91;;;5.75;79.06
6423;BME280;3244;42.708;23.288;2022-12-18T06:41:27;96215.69;;;5.79;78.84
6423;BME280;3244;42.708;23.288;2022-12-18T06:43:53;96226.59;;;5.75;78.33
6423;BME280;3244;42.708;23.288;2022-12-18T06:46:20;96226.59;;;5.76;77.19
6423;BME280;3244;42.708;23.288;2022-12-18T06:48:48;96224.06;;;5.73;77.48
6423;BME280;3244;42.708;23.288;2022-12-18T06:51:17;96235.88;;;5.79;77.37
6423;BME280;3244;42.708;23.288;2022-12-18T06:53:44;96244.28;;;5.81;75.75
6423;BME280;3244;42.708;23.288;2022-12-18T06:56:10;96235.00;;;5.75;75.32
6423;BME280;3244;42.708;23.288;2022-12-18T06:58:39;96241.75;;;5.76;74.88
6423;BME280;3244;42.708;23.288;2022-12-18T07:01:07;96240.91;;;5.76;74.06
6423;BME280;3244;42.708;23.288;2022-12-18T07:03:35;96245.06;;;5.62;74.94
6423;BME280;3244;42.708;23.288;2022-12-18T07:06:02;96241.66;;;5.55;76.28
6423;BME280;3244;42.708;23.288;2022-12-18T07:08:29;96248.41;;;5.58;77.00
6423;BME280;3244;42.708;23.288;2022-12-18T07:10:56;96244.16;;;5.54;76.91
6423;BME280;3244;42.708;23.288;2022-12-18T07:13:23;96250.06;;;5.54;77.44
6423;BME280;3244;42.708;23.288;2022-12-18T07:15:51;96254.28;;;5.58;76.96
6423;BME280;3244;42.708;23.288;2022-12-18T07:18:17;96250.09;;;5.59;76.54
6423;BME280;3244;42.708;23.288;2022-12-18T07:20:44;96249.19;;;5.43;76.93
6423;BME280;3244;42.708;23.288;2022-12-18T07:23:11;96255.91;;;5.42;77.82
6423;BME280;3244;42.708;23.288;2022-12-18T07:25:38;96234.78;;;5.27;77.69
6423;BME280;3244;42.708;23.288;2022-12-18T07:28:05;96256.69;;;5.34;78.20
6423;BME280;3244;42.708;23.288;2022-12-18T07:30:31;96266.75;;;5.31;78.47
6423;BME280;3244;42.708;23.288;2022-12-18T07:33:00;96264.22;;;5.32;78.16
6423;BME280;3244;42.708;23.288;2022-12-18T07:35:26;96264.22;;;5.32;78.34
6423;BME280;3244;42.708;23.288;2022-12-18T07:37:53;96263.31;;;5.24;78.28
6423;BME280;3244;42.708;23.288;2022-12-18T07:40:20;96275.88;;;5.12;78.84
6423;BME280;3244;42.708;23.288;2022-12-18T07:42:46;96264.88;;;5.02;79.93
6423;BME280;3244;42.708;23.288;2022-12-18T07:45:13;96275.00;;;5.10;80.13
6423;BME280;3244;42.708;23.288;2022-12-18T07:47:40;96272.53;;;5.16;79.66
6423;BME280;3244;42.708;23.288;2022-12-18T07:50:09;96275.09;;;5.25;79.36
6423;BME280;3244;42.708;23.288;2022-12-18T07:52:35;96273.44;;;5.26;79.05
6423;BME280;3244;42.708;23.288;2022-12-18T07:55:03;96277.66;;;5.31;80.03
6423;BME280;3244;42.708;23.288;2022-12-18T07:57:30;96279.41;;;5.41;79.79
6423;BME280;3244;42.708;23.288;2022-12-18T07:59:56;96293.69;;;5.41;78.89
6423;BME280;3244;42.708;23.288;2022-12-18T08:02:23;96302.97;;;5.43;78.77
6423;BME280;3244;42.708;23.288;2022-12-18T08:04:50;96292.91;;;5.53;79.26
6423;BME280;3244;42.708;23.288;2022-12-18T08:07:18;96297.91;;;5.46;79.10
6423;BME280;3244;42.708;23.288;2022-12-18T08:09:44;96297.97;;;5.54;79.03
6423;BME280;3244;42.708;23.288;2022-12-18T08:12:11;96287.81;;;5.40;79.33
6423;BME280;3244;42.708;23.288;2022-12-18T08:14:38;96307.25;;;5.60;79.00
6423;BME280;3244;42.708;23.288;2022-12-18T08:17:05;96303.09;;;5.65;78.96
6423;BME280;3244;42.708;23.288;2022-12-18T08:19:32;96311.50;;;5.73;77.66
6423;BME280;3244;42.708;23.288;2022-12-18T08:21:59;96311.47;;;5.61;77.38
6423;BME280;3244;42.708;23.288;2022-12-18T08:24:27;96318.16;;;5.56;77.56
6423;BME280;3244;42.708;23.288;2022-12-18T08:26:54;96299.56;;;5.44;77.14
6423;BME280;3244;42.708;23.288;2022-12-18T08:29:22;96321.56;;;5.64;77.12
6423;BME280;3244;42.708;23.288;2022-12-18T08:31:49;96321.56;;;5.64;76.57
6423;BME280;3244;42.708;23.288;2022-12-18T08:34:15;96335.88;;;5.68;76.86
6423;BME280;3244;42.708;23.288;2022-12-18T08:36:42;96332.53;;;5.69;76.73
6423;BME280;3244;42.708;23.288;2022-12-18T08:39:09;96335.03;;;5.72;76.36
6423;BME280;3244;42.708;23.288;2022-12-18T08:41:37;96328.31;;;5.68;75.77
6423;BME280;3244;42.708;23.288;2022-12-18T08:44:04;96341.81;;;5.76;75.62
6423;BME280;3244;42.708;23.288;2022-12-18T08:46:48;96343.47;;;5.74;75.46
6423;BME280;3244;42.708;23.288;2022-12-18T08:49:15;96335.06;;;5.75;75.09
6423;BME280;3244;42.708;23.288;2022-12-18T08:51:41;96351.06;;;5.77;75.46
6423;BME280;3244;42.708;23.288;2022-12-18T08:54:10;96343.50;;;5.80;75.31
6423;BME280;3244;42.708;23.288;2022-12-18T08:56:38;96343.63;;;5.92;74.37
6423;BME280;3244;42.708;23.288;2022-12-18T08:59:05;96342.78;;;5.93;73.58
6423;BME280;3244;42.708;23.288;2022-12-18T09:01:32;96339.41;;;5.91;73.37
6423;BME280;3244;42.708;23.288;2022-12-18T09:03:58;96345.28;;;5.96;72.95
6423;BME280;3244;42.708;23.288;2022-12-18T09:06:25;96341.09;;;5.92;72.72
6423;BME280;3244;42.708;23.288;2022-12-18T09:08:52;96332.69;;;5.96;72.42
6423;BME280;3244;42.708;23.288;2022-12-18T09:11:21;96335.25;;;6.02;72.17
6423;BME280;3244;42.708;23.288;2022-12-18T09:13:49;96337.81;;;6.10;71.28
6423;BME280;3244;42.708;23.288;2022-12-18T09:16:17;96337.81;;;6.10;71.30
6423;BME280;3244;42.708;23.288;2022-12-18T09:18:44;96340.31;;;6.08;71.56
6423;BME280;3244;42.708;23.288;2022-12-18T09:21:12;96348.78;;;6.17;71.88
6423;BME280;3244;42.708;23.288;2022-12-18T09:23:40;96343.75;;;6.30;70.87
6423;BME280;3244;42.708;23.288;2022-12-18T09:26:06;96339.59;;;6.40;71.40
6423;BME280;3244;42.708;23.288;2022-12-18T09:28:33;96341.28;;;6.47;69.87
6423;BME280;3244;42.708;23.288;2022-12-18T09:31:05;96341.31;;;6.56;69.38
6423;BME280;3244;42.708;23.288;2022-12-18T09:33:33;96337.09;;;6.55;70.21
6423;BME280;3244;42.708;23.288;2022-12-18T09:36:01;96340.44;;;6.49;69.05
6423;BME280;3244;42.708;23.288;2022-12-18T09:38:28;96335.38;;;6.45;69.23
6423;BME280;3244;42.708;23.288;2022-12-18T09:40:59;96332.88;;;6.42;70.05
6423;BME280;3244;42.708;23.288;2022-12-18T09:43:29;96329.44;;;6.26;69.85
6423;BME280;3244;42.708;23.288;2022-12-18T09:46:01;96341.22;;;6.26;69.99
6423;BME280;3244;42.708;23.288;2022-12-18T09:48:35;96342.06;;;6.28;70.08
6423;BME280;3244;42.708;23.288;2022-12-18T09:51:07;96342.13;;;6.40;69.70
6423;BME280;3244;42.708;23.288;2022-12-18T09:53:37;96338.75;;;6.50;69.47
6423;BME280;3244;42.708;23.288;2022-12-18T09:56:10;96330.41;;;6.66;68.42
6423;BME280;3244;42.708;23.288;2022-12-18T09:58:41;96332.91;;;6.74;67.61
6423;BME280;3244;42.708;23.288;2022-12-18T10:01:11;96332.91;;;6.57;66.64
6423;BME280;3244;42.708;23.288;2022-12-18T10:03:40;96318.59;;;6.68;67.27
6423;BME280;3244;42.708;23.288;2022-12-18T10:06:11;96316.94;;;6.78;67.30
6423;BME280;3244;42.708;23.288;2022-12-18T10:08:45;96334.63;;;6.81;67.46
6423;BME280;3244;42.708;23.288;2022-12-18T10:11:26;96334.63;;;6.81;67.23
6423;BME280;3244;42.708;23.288;2022-12-18T10:13:59;96327.03;;;6.79;67.88
6423;BME280;3244;42.708;23.288;2022-12-18T10:16:34;96337.16;;;6.86;67.80
6423;BME280;3244;42.708;23.288;2022-12-18T10:19:18;96331.28;;;7.05;67.66
6423;BME280;3244;42.708;23.288;2022-12-18T10:21:55;96333.81;;;7.11;66.56
6423;BME280;3244;42.708;23.288;2022-12-18T10:24:28;96340.53;;;7.09;66.48
6423;BME280;3244;42.708;23.288;2022-12-18T10:27:06;96337.19;;;7.08;66.44
6423;BME280;3244;42.708;23.288;2022-12-18T10:29:37;96342.22;;;7.11;65.68
6423;BME280;3244;42.708;23.288;2022-12-18T10:32:04;96340.53;;;7.00;65.71
6423;BME280;3244;42.708;23.288;2022-12-18T10:34:32;96346.44;;;6.90;66.66
6423;BME280;3244;42.708;23.288;2022-12-18T10:37:00;96338.84;;;6.94;67.13
6423;BME280;3244;42.708;23.288;2022-12-18T10:39:28;96334.63;;;7.04;66.82
6423;BME280;3244;42.708;23.288;2022-12-18T10:42:09;96333.81;;;7.11;66.95
6423;BME280;3244;42.708;23.288;2022-12-18T10:44:36;96338.88;;;7.14;66.45
6423;BME280;3244;42.708;23.288;2022-12-18T10:47:05;96340.53;;;7.18;65.91
6423;BME280;3244;42.708;23.288;2022-12-18T10:49:35;96330.41;;;7.18;66.98
6423;BME280;3244;42.708;23.288;2022-12-18T10:52:14;96335.47;;;7.21;66.33
6423;BME280;3244;42.708;23.288;2022-12-18T10:54:47;96338.03;;;7.16;66.25
6423;BME280;3244;42.708;23.288;2022-12-18T10:57:16;96332.97;;;7.10;66.67
6423;BME280;3244;42.708;23.288;2022-12-18T10:59:51;96332.97;;;7.16;66.78
6423;BME280;3244;42.708;23.288;2022-12-18T11:02:27;96332.94;;;7.29;65.80
6423;BME280;3244;42.708;23.288;2022-12-18T11:04:55;96331.28;;;7.38;65.99
6423;BME280;3244;42.708;23.288;2022-12-18T11:07:22;96330.44;;;7.33;63.92
6423;BME280;3244;42.708;23.288;2022-12-18T11:10:00;96340.53;;;7.33;64.16
6423;BME280;3244;42.708;23.288;2022-12-18T11:12:28;96331.28;;;7.29;64.85
6423;BME280;3244;42.708;23.288;2022-12-18T11:14:55;96319.47;;;7.33;64.35
6423;BME280;3244;42.708;23.288;2022-12-18T11:17:27;96334.66;;;7.39;64.64
6423;BME280;3244;42.708;23.288;2022-12-18T11:19:57;96327.03;;;7.46;65.41
6423;BME280;3244;42.708;23.288;2022-12-18T11:22:26;96333.75;;;7.63;65.53
6423;BME280;3244;42.708;23.288;2022-12-18T11:24:56;96326.13;;;7.67;64.57
6423;BME280;3244;42.708;23.288;2022-12-18T11:27:24;96343.84;;;7.69;64.81
6423;BME280;3244;42.708;23.288;2022-12-18T11:29:52;96340.50;;;7.55;63.42
6423;BME280;3244;42.708;23.288;2022-12-18T11:32:32;96338.03;;;7.41;65.12
6423;BME280;3244;42.708;23.288;2022-12-18T11:35:12;96335.50;;;7.33;65.34
6423;BME280;3244;42.708;23.288;2022-12-18T11:37:43;96335.47;;;7.23;65.04
6423;BME280;3244;42.708;23.288;2022-12-18T11:40:18;96338.00;;;7.24;64.59
6423;BME280;3244;42.708;23.288;2022-12-18T11:42:50;96336.31;;;7.28;65.23
6423;BME280;3244;42.708;23.288;2022-12-18T11:45:40;96342.22;;;7.25;64.78
6423;BME280;3244;42.708;23.288;2022-12-18T11:48:14;96344.75;;;7.11;64.06
6423;BME280;3244;42.708;23.288;2022-12-18T11:50:49;96340.53;;;7.00;65.29
6423;BME280;3244;42.708;23.288;2022-12-18T11:53:17;96343.91;;;6.99;65.93
6423;BME280;3244;42.708;23.288;2022-12-18T11:55:57;96346.44;;;6.99;66.52
6423;BME280;3244;42.708;23.288;2022-12-18T11:58:42;96332.09;;;6.95;64.78
6423;BME280;3244;42.708;23.288;2022-12-18T12:01:17;96336.31;;;6.90;65.68
6423;BME280;3244;42.708;23.288;2022-12-18T12:04:00;96336.31;;;6.94;67.25
6423;BME280;3244;42.708;23.288;2022-12-18T12:06:39;96330.44;;;7.09;66.85
6423;BME280;3244;42.708;23.288;2022-12-18T12:09:15;96330.41;;;7.00;66.15
6423;BME280;3244;42.708;23.288;2022-12-18T12:11:54;96330.41;;;6.83;66.01
6423;BME280;3244;42.708;23.288;2022-12-18T12:14:37;96332.09;;;6.82;66.84
6423;BME280;3244;42.708;23.288;2022-12-18T12:17:11;96335.47;;;6.85;67.03
6423;BME280;3244;42.708;23.288;2022-12-18T12:19:46;96333.81;;;6.90;66.33
6423;BME280;3244;42.708;23.288;2022-12-18T12:22:22;96333.78;;;7.00;66.94
6423;BME280;3244;42.708;23.288;2022-12-18T12:25:03;96300.09;;;6.89;66.56
6423;BME280;3244;42.708;23.288;2022-12-18T12:27:39;96333.81;;;7.17;66.15
6423;BME280;3244;42.708;23.288;2022-12-18T12:30:17;96339.69;;;7.08;66.04
6423;BME280;3244;42.708;23.288;2022-12-18T12:33:04;96338.84;;;7.08;66.70
6423;BME280;3244;42.708;23.288;2022-12-18T12:35:44;96347.28;;;7.07;66.31
6423;BME280;3244;42.708;23.288;2022-12-18T12:38:16;96358.25;;;7.10;66.29
6423;BME280;3244;42.708;23.288;2022-12-18T12:40:47;96348.13;;;7.07;66.85
6423;BME280;3244;42.708;23.288;2022-12-18T12:43:24;96342.22;;;7.10;66.46
6423;BME280;3244;42.708;23.288;2022-12-18T12:45:53;96338.84;;;7.05;67.24
6423;BME280;3244;42.708;23.288;2022-12-18T12:48:31;96338.00;;;7.07;67.34
6423;BME280;3244;42.708;23.288;2022-12-18T12:51:00;96345.59;;;7.06;67.21
6423;BME280;3244;42.708;23.288;2022-12-18T12:53:34;96345.59;;;7.03;68.00
6423;BME280;3244;42.708;23.288;2022-12-18T12:56:03;96344.75;;;7.05;68.10
6423;BME280;3244;42.708;23.288;2022-12-18T12:58:36;96354.03;;;7.11;67.73
6423;BME280;3244;42.708;23.288;2022-12-18T13:01:12;96355.72;;;7.09;66.92
6423;BME280;3244;42.708;23.288;2022-12-18T13:03:48;96354.00;;;6.99;67.43
6423;BME280;3244;42.708;23.288;2022-12-18T13:06:22;96350.66;;;7.03;67.00
6423;BME280;3244;42.708;23.288;2022-12-18T13:08:56;96359.06;;;6.94;65.99
6423;BME280;3244;42.708;23.288;2022-12-18T13:11:36;96361.59;;;6.90;67.02
6423;BME280;3244;42.708;23.288;2022-12-18T13:14:23;96380.97;;;6.85;66.32
6423;BME280;3244;42.708;23.288;2022-12-18T13:16:50;96367.47;;;6.82;66.08
6423;BME280;3244;42.708;23.288;2022-12-18T13:19:22;96375.84;;;6.63;67.32
6423;BME280;3244;42.708;23.288;2022-12-18T13:21:54;96374.13;;;6.55;67.58
6423;BME280;3244;42.708;23.288;2022-12-18T13:24:26;96382.56;;;6.55;67.63
6423;BME280;3244;42.708;23.288;2022-12-18T13:26:54;96379.19;;;6.56;67.73
6423;BME280;3244;42.708;23.288;2022-12-18T13:29:41;96382.56;;;6.55;68.78
6423;BME280;3244;42.708;23.288;2022-12-18T13:32:21;96376.63;;;6.47;68.08
6423;BME280;3244;42.708;23.288;2022-12-18T13:34:48;96387.63;;;6.61;68.40
6423;BME280;3244;42.708;23.288;2022-12-18T13:37:39;96388.50;;;6.63;67.56
6423;BME280;3244;42.708;23.288;2022-12-18T13:43:23;96385.09;;;6.55;68.88